EGNM/LBA METAR and TAF weather

Enter ICAO airport designator
Station Type Date Time Source
EGNM METAR 2024/04/18 08:20 UTC NOAA

EGNM 180820Z 26011KT CAVOK 06/01 Q1022


Station Type Date Time Source
EGNM Decoded METAR 2024/04/18 08:20 UTC NOAA

Leeds And Bradford, United Kingdom (EGNM) 53-52N 001-39W
Apr 18, 2024 - 04:20 AM EDT / 2024.04.18 0820 UTC
Wind: from the W (260 degrees) at 13 MPH (11 KT):0
Visibility: greater than 7 mile(s):0
Temperature: 42 F (6 C)
Dew Point: 33 F (1 C)
Relative Humidity: 70%
Pressure (altimeter): 30.18 in. Hg (1022 hPa)
ob: EGNM 180820Z 26011KT CAVOK 06/01 Q1022
cycle: 8

Station Type Date Time Source
EGNM TAF 2024/04/18 18:06 UTC NOAA